West Richland, WA (99353)

9:44 PM PDT on August 28, 2016 (GMT -0700)
Grosscup and 59th | | Change Station

Elev 424 ft 46.31 °N, 119.36 °W | Updated 20 seconds ago

Clear
Clear
73.2 °F
Feels Like 77 °F
N
0.0
Wind Variable Wind from SSE
Gusts 0.0 mph

Today
High -- | Low -- °F
--% Chance of Precip.
Yesterday
High -- | Low -- °F
Precip. -- in
Pressure 29.96 in
Visibility 10.0 miles
Clouds Clear
Heat Index 77 °F
Dew Point 50 °F
Humidity 43%
Rainfall 0.00 in
Snow Depth Not available.
6:13 AM 7:42 PM
Waning Crescent, 11% visible
METAR KPSC 290353Z 01003KT 10SM CLR 21/11 A2996 RMK AO2 SLP145 T02110111
Pressure 29.96 in
Visibility 10.0 miles
Clouds Clear
Heat Index 77 °F
Dew Point 50 °F
Humidity 43%
Rainfall 0.00 in
Snow Depth Not available.
6:13 AM 7:42 PM
Waning Crescent, 11% visible
METAR KPSC 290353Z 01003KT 10SM CLR 21/11 A2996 RMK AO2 SLP145 T02110111

10-Day Weather Forecast

Almanac

Astronomy

Aug. 28, 2016 Rise Set
Actual Time
Civil Twilight
Nautical Twilight
Astronomical Twilight
Moon
Length of Visible Light
Length of Day
Tomorrow will be .
, % of the Moon is Illuminated

Today's Extremes

State Highs State Lows

Community

WunderPhotos

Upload Photos

1,935,799 photos uploaded!

WunderBlog® & News

Nearby

Air Quality

  Air Quality AQ Index Pollutant
Not available.

Snow Depth

Station Depth Elevation

Earthquake Activity

City Distance Mag. Time & Date
Minimum magnitude displayed is 2.5.

Coastal Water Temperatures

Place Temperature

Stations

Nearby Weather Stations

Station Location Temp. Windchill Dew Point Humidity Wind Precip. Elev Updated Type
                   

Watches & Warnings

There are currently no watches in effect.